createdAt,value
2022-09-09T00:08:40.967Z,228.70
2022-09-09T00:18:58.811Z,231.40
2022-09-09T00:29:15.375Z,235.47
2022-09-09T00:39:35.223Z,229.03
2022-09-09T00:49:59.294Z,228.47
2022-09-09T01:00:26.801Z,234.80
2022-09-09T01:10:47.314Z,229.77
2022-09-09T01:21:05.248Z,225.07
2022-09-09T01:31:15.026Z,233.53
2022-09-09T01:41:23.074Z,232.07
2022-09-09T01:51:37.693Z,232.13
2022-09-09T02:02:00.262Z,232.50
2022-09-09T02:12:14.146Z,238.03
2022-09-09T02:22:26.613Z,237.00
2022-09-09T02:32:35.251Z,231.10
2022-09-09T02:42:42.640Z,237.33
2022-09-09T02:53:05.148Z,234.10
2022-09-09T03:03:10.966Z,231.87
2022-09-09T03:13:17.297Z,232.77
2022-09-09T03:23:21.735Z,225.77
2022-09-09T03:33:28.884Z,226.77
2022-09-09T03:43:33.781Z,227.67
2022-09-09T03:53:39.336Z,232.60
2022-09-09T04:03:43.672Z,232.83
2022-09-09T04:13:50.359Z,229.87
2022-09-09T04:23:55.715Z,227.53
2022-09-09T04:34:03.355Z,237.17
2022-09-09T04:44:07.297Z,227.83
2022-09-09T04:54:12.840Z,231.77
2022-09-09T05:04:20.572Z,229.10
2022-09-09T05:14:26.116Z,224.87
2022-09-09T05:24:30.571Z,229.77
2022-09-09T05:34:38.760Z,234.20
2022-09-09T05:44:45.718Z,225.80
2022-09-09T05:54:51.501Z,225.57
2022-09-09T06:05:00.432Z,224.20
2022-09-09T06:15:10.248Z,222.57
2022-09-09T06:25:14.006Z,233.27
2022-09-09T06:35:19.190Z,238.73
2022-09-09T06:45:22.724Z,242.77
2022-09-09T06:55:33.411Z,239.07
2022-09-09T07:05:37.492Z,231.02
2022-09-09T07:15:42.627Z,236.95
2022-09-09T07:25:48.537Z,236.70
2022-09-09T07:35:55.840Z,241.93
2022-09-09T07:46:00.287Z,247.27
2022-09-09T07:56:11.454Z,234.00
2022-09-09T08:06:16.209Z,242.73
2022-09-09T08:16:24.649Z,258.75
2022-09-09T08:26:30.878Z,230.80
2022-09-09T08:36:38.928Z,227.98
2022-09-09T08:46:57.079Z,230.93
2022-09-09T08:57:02.019Z,234.52
2022-09-09T09:07:17.456Z,233.82
2022-09-09T09:17:28.683Z,232.27
2022-09-09T09:27:37.316Z,233.05
2022-09-09T09:48:15.044Z,224.48
2022-09-09T09:58:20.298Z,213.75
2022-09-09T10:08:27.894Z,211.15
2022-09-09T10:18:48.351Z,207.75
2022-09-09T10:29:17.504Z,200.38
2022-09-09T10:39:40.620Z,199.13
2022-09-09T10:50:16.243Z,200.85
2022-09-09T11:00:23.934Z,224.32
2022-09-09T11:10:37.092Z,223.00
2022-09-09T11:20:42.465Z,228.23
2022-09-09T11:31:02.857Z,229.40
2022-09-09T11:41:11.213Z,232.23
2022-09-09T11:51:28.253Z,245.75
2022-09-09T12:01:38.984Z,247.02
2022-09-09T12:11:42.568Z,264.33
2022-09-09T12:21:56.723Z,216.20
2022-09-09T12:32:07.853Z,211.07
2022-09-09T12:42:20.893Z,212.40
2022-09-09T12:52:31.222Z,223.73
2022-09-09T13:02:36.828Z,219.65
2022-09-09T13:12:40.501Z,234.18
2022-09-09T13:22:45.280Z,247.63
2022-09-09T13:32:48.629Z,237.10
2022-09-09T13:42:59.059Z,238.27
2022-09-09T13:53:02.539Z,238.02
2022-09-09T14:03:08.715Z,235.27
2022-09-09T14:13:13.242Z,237.60
2022-09-09T14:23:18.453Z,239.00
2022-09-09T14:33:22.284Z,235.45
2022-09-09T14:43:29.014Z,241.43
2022-09-09T14:53:32.835Z,241.90
2022-09-09T15:03:38.319Z,250.07
2022-09-09T15:13:44.009Z,243.63
2022-09-09T15:23:49.418Z,240.93
2022-09-09T15:33:54.780Z,242.90
2022-09-09T15:44:00.338Z,246.48
2022-09-09T15:54:04.315Z,248.55
2022-09-09T16:04:09.471Z,243.38
2022-09-09T16:14:13.286Z,237.93
2022-09-09T16:24:21.098Z,242.57
2022-09-09T16:34:24.819Z,242.68
2022-09-09T16:44:30.332Z,239.93
2022-09-09T16:54:34.104Z,236.57
2022-09-09T17:04:40.327Z,235.00
2022-09-09T17:14:44.157Z,245.13
2022-09-09T17:24:49.302Z,238.90
2022-09-09T17:34:54.254Z,250.33
2022-09-09T17:44:59.302Z,237.63
2022-09-09T17:55:03.175Z,241.83
2022-09-09T18:05:09.399Z,250.73
2022-09-09T18:15:20.924Z,242.83
2022-09-09T18:25:33.573Z,242.53
2022-09-09T18:35:39.338Z,247.80
2022-09-09T18:45:44.748Z,244.43
2022-09-09T18:55:48.673Z,248.30
2022-09-09T19:05:54.071Z,258.20
2022-09-09T19:15:57.849Z,256.43
2022-09-09T19:26:06.479Z,255.23
2022-09-09T19:36:11.993Z,248.27
2022-09-09T19:46:18.546Z,250.47
2022-09-09T19:56:25.109Z,244.80
2022-09-09T20:06:33.332Z,250.37
2022-09-09T20:16:37.161Z,259.73
2022-09-09T20:26:42.357Z,243.97
2022-09-09T20:36:46.187Z,249.67
2022-09-09T20:46:55.571Z,252.03
2022-09-09T20:57:00.527Z,255.37
2022-09-09T21:07:07.626Z,262.00
2022-09-09T21:17:11.651Z,258.37
2022-09-09T21:27:16.599Z,257.80
2022-09-09T21:37:20.321Z,259.67
2022-09-09T21:47:25.573Z,254.87
2022-09-09T21:57:29.400Z,251.23
2022-09-09T22:07:34.551Z,250.20
2022-09-09T22:17:38.476Z,259.50
2022-09-09T22:27:43.478Z,261.60
2022-09-09T22:37:47.494Z,256.93
2022-09-09T22:47:52.499Z,258.43
2022-09-09T22:57:57.187Z,262.47
2022-09-09T23:08:02.342Z,269.20
2022-09-09T23:18:06.369Z,267.50
2022-09-09T23:28:11.521Z,269.50
2022-09-09T23:38:15.599Z,266.97
2022-09-09T23:48:20.851Z,272.47
2022-09-09T23:58:24.414Z,272.60
